KFLD/FLD METAR and TAF weather

Enter ICAO airport designator
Station Type Date Time Source
KFLD METAR 2020/11/25 22:53 UTC NOAA

KFLD 252253Z AUTO 01011KT 2 1/2SM BR OVC002 04/03 A2979 RMK AO2 SLP094 T00440033


Station Type Date Time Source
KFLD Decoded METAR 2020/11/25 22:53 UTC NOAA

FOND DU LAC COUNTY AIRPORT, WI, United States (KFLD) 43-46N 88-29W 240M
Nov 25, 2020 - 05:53 PM EST / 2020.11.25 2253 UTC
Wind: from the N (010 degrees) at 13 MPH (11 KT):0
Visibility: 2 1/2 mile(s):0
Sky conditions: overcast
Weather: mist
Temperature: 39.9 F (4.4 C)
Dew Point: 37.9 F (3.3 C)
Relative Humidity: 92%
Pressure (altimeter): 29.79 in. Hg (1008 hPa)
ob: KFLD 252253Z AUTO 01011KT 2 1/2SM BR OVC002 04/03 A2979 RMK AO2 SLP094 T00440033
cycle: 23

Station Type Date Time Source
KFLD TAF UTC NOAA

Error!

Example: see airport list